Time;durP1;ratioP1;P1;durP2;ratioP2;P2;SDS_P1;SDS_P2;PMS_P1;PMS_P2;Temp;Humidity;BMP_temperature;BMP_pressure;BME280_temperature;BME280_humidity;BME280_pressure;Samples;Min_cycle;Max_cycle;Signal;HPM_P1;HPM_P2
2022/05/09 00:01:05;;;;;;;;;;;14.90;99.90;;;;;;5117440;28;20358;-76
2022/05/09 00:03:32;;;;;;;;;;;14.80;99.90;;;;;;5117358;28;19977;-76
2022/05/09 00:06:00;;;;;;;;;;;14.90;99.90;;;;;;5117521;28;20278;-75
2022/05/09 00:08:27;;;;;;;;;;;15.10;99.90;;;;;;5117403;28;19907;-76
2022/05/09 00:10:54;;;;;;;;;;;15.10;99.90;;;;;;5117368;28;19908;-77
2022/05/09 00:13:20;;;;;;;;;;;15.20;99.90;;;;;;5117105;28;19915;-77
2022/05/09 00:15:47;;;;;;;;;;;15.00;99.90;;;;;;5117066;28;19961;-77
2022/05/09 00:18:14;;;;;;;;;;;15.00;99.90;;;;;;5117119;28;19911;-76
2022/05/09 00:20:40;;;;;;;;;;;15.10;99.90;;;;;;5117163;28;19933;-77
2022/05/09 00:23:07;;;;;;;;;;;15.30;99.90;;;;;;5117200;28;19915;-76
2022/05/09 00:25:34;;;;;;;;;;;15.40;99.90;;;;;;5116853;28;20371;-76
2022/05/09 00:28:01;;;;;;;;;;;15.30;99.90;;;;;;5116881;28;19912;-76
2022/05/09 00:30:27;;;;;;;;;;;15.30;99.90;;;;;;5117025;28;20266;-76
2022/05/09 00:32:54;;;;;;;;;;;15.30;99.90;;;;;;5116911;28;19908;-76
2022/05/09 00:35:21;;;;;;;;;;;15.30;99.90;;;;;;5116831;28;19961;-75
2022/05/09 00:37:48;;;;;;;;;;;15.30;99.90;;;;;;5116595;28;19998;-76
2022/05/09 00:40:16;;;;;;;;;;;15.40;99.90;;;;;;5116682;28;19915;-76
2022/05/09 00:42:47;;;;;;;;;;;15.40;99.90;;;;;;5116628;28;20015;-76
2022/05/09 00:45:13;;;;;;;;;;;15.30;99.90;;;;;;5116783;28;19998;-76
2022/05/09 00:47:40;;;;;;;;;;;15.30;99.90;;;;;;5116462;28;19920;-76
2022/05/09 00:50:09;;;;;;;;;;;15.40;99.90;;;;;;5116351;28;19916;-75
2022/05/09 00:52:38;;;;;;;;;;;15.40;99.90;;;;;;5116423;28;19915;-74
2022/05/09 00:55:10;;;;;;;;;;;15.40;99.90;;;;;;5116366;28;19908;-76
2022/05/09 00:57:43;;;;;;;;;;;15.40;99.90;;;;;;5116053;28;20274;-76
2022/05/09 01:00:15;;;;;;;;;;;15.40;99.90;;;;;;5116334;28;19912;-75
2022/05/09 01:02:44;;;;;;;;;;;15.30;99.90;;;;;;5116349;28;20037;-75
2022/05/09 01:05:12;;;;;;;;;;;15.20;99.90;;;;;;5116161;28;19908;-75
2022/05/09 01:07:39;;;;;;;;;;;15.10;99.90;;;;;;5115879;28;20540;-75
2022/05/09 01:10:09;;;;;;;;;;;15.20;99.90;;;;;;5116265;28;19907;-75
2022/05/09 01:12:36;;;;;;;;;;;15.30;99.90;;;;;;5115878;28;19908;-75
2022/05/09 01:15:06;;;;;;;;;;;15.30;99.90;;;;;;5116055;28;19908;-75
2022/05/09 01:17:34;;;;;;;;;;;15.40;99.90;;;;;;5115825;28;19908;-75
2022/05/09 01:20:01;;;;;;;;;;;15.40;99.90;;;;;;5116046;28;19969;-75
2022/05/09 01:22:29;;;;;;;;;;;15.40;99.90;;;;;;5115878;28;19908;-74
2022/05/09 01:25:02;;;;;;;;;;;15.40;99.90;;;;;;5115871;28;19911;-74
2022/05/09 01:27:28;;;;;;;;;;;15.30;99.90;;;;;;5114440;28;19954;-74
2022/05/09 01:29:56;;;;;;;;;;;15.30;99.90;;;;;;5115840;28;19915;-74
2022/05/09 01:32:34;;;;;;;;;;;15.10;99.90;;;;;;5115725;28;20281;-74
2022/05/09 01:35:06;;;;;;;;;;;15.10;99.90;;;;;;5115924;28;19947;-75
2022/05/09 01:37:34;;;;;;;;;;;15.10;99.90;;;;;;5115405;28;19968;-74
2022/05/09 01:40:01;;;;;;;;;;;15.20;99.90;;;;;;5115490;28;19927;-75
2022/05/09 01:42:28;;;;;;;;;;;15.20;99.90;;;;;;5115487;28;19968;-74
2022/05/09 01:44:55;;;;;;;;;;;15.40;99.90;;;;;;5115472;28;19937;-74
2022/05/09 01:50:07;;;;;;;;;;;15.30;99.90;;;;;;5115524;28;19946;-75
2022/05/09 01:52:33;;;;;;;;;;;15.40;99.90;;;;;;5115355;28;20270;-75
2022/05/09 01:55:00;;;;;;;;;;;15.40;99.90;;;;;;5115355;28;19915;-74
2022/05/09 01:57:26;;;;;;;;;;;15.50;99.90;;;;;;5115191;28;19908;-75
2022/05/09 01:59:53;;;;;;;;;;;15.40;99.90;;;;;;5115013;28;19915;-75
2022/05/09 02:02:21;;;;;;;;;;;15.50;99.90;;;;;;5115294;28;19914;-75
2022/05/09 02:04:47;;;;;;;;;;;15.40;99.90;;;;;;5115103;28;19981;-74
2022/05/09 02:07:16;;;;;;;;;;;15.50;99.90;;;;;;5114613;28;20324;-75
2022/05/09 02:09:48;;;;;;;;;;;15.60;99.90;;;;;;5114748;28;19908;-74
2022/05/09 02:12:15;;;;;;;;;;;15.50;99.90;;;;;;5114830;28;20350;-74
2022/05/09 02:14:43;;;;;;;;;;;15.40;99.90;;;;;;5114887;28;19961;-74
2022/05/09 02:17:10;;;;;;;;;;;15.40;99.90;;;;;;5115029;28;19943;-74
2022/05/09 02:19:36;;;;;;;;;;;15.30;99.90;;;;;;5114406;28;19915;-74
2022/05/09 02:22:03;;;;;;;;;;;15.40;99.90;;;;;;5114665;28;19908;-75
2022/05/09 02:24:30;;;;;;;;;;;15.40;99.90;;;;;;5114574;28;19954;-74
2022/05/09 02:26:57;;;;;;;;;;;15.30;99.90;;;;;;5107590;28;19960;-76
2022/05/09 02:29:25;;;;;;;;;;;15.40;99.90;;;;;;5082371;28;20379;-75
2022/05/09 02:31:52;;;;;;;;;;;15.30;99.90;;;;;;5076233;28;19916;-75
2022/05/09 02:34:19;;;;;;;;;;;15.30;99.90;;;;;;5114448;28;19908;-74
2022/05/09 02:36:46;;;;;;;;;;;15.30;99.90;;;;;;5114429;28;19915;-74
2022/05/09 02:39:12;;;;;;;;;;;15.40;99.90;;;;;;5114050;28;19980;-75
2022/05/09 02:41:39;;;;;;;;;;;15.50;99.90;;;;;;5114093;28;19907;-74
2022/05/09 02:44:06;;;;;;;;;;;15.50;99.90;;;;;;5114397;28;19907;-74
2022/05/09 02:46:33;;;;;;;;;;;15.60;99.90;;;;;;5114374;28;19908;-74
2022/05/09 02:49:02;;;;;;;;;;;15.50;99.90;;;;;;5114338;28;20259;-74
2022/05/09 02:51:29;;;;;;;;;;;15.50;99.90;;;;;;5114103;28;19929;-74
2022/05/09 02:53:56;;;;;;;;;;;15.60;99.90;;;;;;5114171;28;19916;-74
2022/05/09 02:56:23;;;;;;;;;;;15.60;99.90;;;;;;5113906;28;20006;-74
2022/05/09 02:58:49;;;;;;;;;;;15.70;99.90;;;;;;5113880;28;20022;-73
2022/05/09 03:01:16;;;;;;;;;;;15.70;99.90;;;;;;5113868;28;20450;-74
2022/05/09 03:06:27;;;;;;;;;;;15.70;99.90;;;;;;5113997;28;20022;-74
2022/05/09 03:08:54;;;;;;;;;;;15.60;99.90;;;;;;5113920;28;20377;-73
2022/05/09 03:11:21;;;;;;;;;;;15.60;99.90;;;;;;5113567;28;19908;-74
2022/05/09 03:13:47;;;;;;;;;;;15.70;99.90;;;;;;5113687;28;20278;-74
2022/05/09 03:16:14;;;;;;;;;;;15.70;99.90;;;;;;5113803;28;19934;-74
2022/05/09 03:18:41;;;;;;;;;;;15.80;99.90;;;;;;5112873;28;19992;-74
2022/05/09 03:21:07;;;;;;;;;;;15.80;99.90;;;;;;5113618;28;19916;-74
2022/05/09 03:23:34;;;;;;;;;;;15.80;99.90;;;;;;5113605;28;19912;-74
2022/05/09 03:26:00;;;;;;;;;;;15.80;99.90;;;;;;5113410;28;19912;-74
2022/05/09 03:28:27;;;;;;;;;;;15.80;99.90;;;;;;5113427;28;19908;-74
2022/05/09 03:30:56;;;;;;;;;;;15.60;99.90;;;;;;5095229;28;20274;-74
2022/05/09 03:33:26;;;;;;;;;;;15.60;99.90;;;;;;5113517;28;19912;-74
2022/05/09 03:35:54;;;;;;;;;;;15.50;99.90;;;;;;5113329;28;19908;-74
2022/05/09 03:38:21;;;;;;;;;;;15.50;99.90;;;;;;5113677;28;19915;-74
2022/05/09 03:40:48;;;;;;;;;;;15.50;99.90;;;;;;5113582;28;19918;-74
2022/05/09 03:43:14;;;;;;;;;;;15.50;99.90;;;;;;5113583;28;20003;-74
2022/05/09 03:45:43;;;;;;;;;;;15.60;99.90;;;;;;5113225;28;19919;-74
2022/05/09 03:48:09;;;;;;;;;;;15.70;99.90;;;;;;5113505;28;19930;-75
2022/05/09 03:50:36;;;;;;;;;;;15.80;99.90;;;;;;5113069;28;19971;-74
2022/05/09 03:53:03;;;;;;;;;;;15.80;99.90;;;;;;5113475;28;20381;-74
2022/05/09 03:55:33;;;;;;;;;;;15.90;99.90;;;;;;5113579;28;20277;-74
2022/05/09 03:58:00;;;;;;;;;;;15.80;99.90;;;;;;5113268;28;19977;-74
2022/05/09 04:00:28;;;;;;;;;;;15.80;99.90;;;;;;5113226;28;19955;-75
2022/05/09 04:02:55;;;;;;;;;;;15.90;99.90;;;;;;5113296;28;19908;-74
2022/05/09 04:05:21;;;;;;;;;;;15.90;99.90;;;;;;5113150;28;20286;-74
2022/05/09 04:07:49;;;;;;;;;;;15.90;99.90;;;;;;5112865;28;19907;-74
2022/05/09 04:10:17;;;;;;;;;;;15.80;99.90;;;;;;5113073;28;19953;-74
2022/05/09 04:12:44;;;;;;;;;;;15.90;99.90;;;;;;5113148;28;20323;-75
2022/05/09 04:17:55;;;;;;;;;;;15.90;99.90;;;;;;5113454;28;20414;-75
2022/05/09 04:20:23;;;;;;;;;;;15.90;99.90;;;;;;5113333;28;19938;-76
2022/05/09 04:22:51;;;;;;;;;;;15.90;99.90;;;;;;5113390;28;19924;-75
2022/05/09 04:25:19;;;;;;;;;;;15.90;99.90;;;;;;5113422;28;19908;-75
2022/05/09 04:27:46;;;;;;;;;;;15.80;99.90;;;;;;5112884;28;19908;-75
2022/05/09 04:30:13;;;;;;;;;;;15.70;99.90;;;;;;5114025;28;19915;-75
2022/05/09 04:32:40;;;;;;;;;;;15.70;99.90;;;;;;5116709;28;19960;-74
2022/05/09 04:35:28;;;;;;;;;;;15.90;99.90;;;;;;5116863;28;20010;-76
2022/05/09 04:37:55;;;;;;;;;;;15.90;99.90;;;;;;5116439;28;19907;-75
2022/05/09 04:40:25;;;;;;;;;;;15.80;99.90;;;;;;5116664;28;20449;-75
2022/05/09 04:42:52;;;;;;;;;;;15.70;99.90;;;;;;5116555;28;20319;-76
2022/05/09 04:45:19;;;;;;;;;;;15.70;99.90;;;;;;5116601;28;19994;-74
2022/05/09 04:47:46;;;;;;;;;;;15.70;99.90;;;;;;5116212;28;20373;-75
2022/05/09 04:50:14;;;;;;;;;;;15.80;99.90;;;;;;5116262;28;19947;-75
2022/05/09 04:52:41;;;;;;;;;;;15.80;99.90;;;;;;5116419;28;19912;-75
2022/05/09 04:55:08;;;;;;;;;;;15.80;99.90;;;;;;5116464;28;19964;-75
2022/05/09 04:57:35;;;;;;;;;;;15.90;99.90;;;;;;5116107;28;19908;-75
2022/05/09 05:00:02;;;;;;;;;;;16.10;99.90;;;;;;5116366;28;19928;-75
2022/05/09 05:02:29;;;;;;;;;;;16.10;99.90;;;;;;5116353;28;19912;-75
2022/05/09 05:04:56;;;;;;;;;;;16.00;99.90;;;;;;5116077;28;19908;-75
2022/05/09 05:07:22;;;;;;;;;;;16.00;99.90;;;;;;5116264;28;19915;-75
2022/05/09 05:09:49;;;;;;;;;;;16.10;99.90;;;;;;5115924;28;19908;-74
2022/05/09 05:12:16;;;;;;;;;;;16.10;99.90;;;;;;5115976;28;19961;-75
2022/05/09 05:14:44;;;;;;;;;;;16.10;99.90;;;;;;5116204;28;19977;-74
2022/05/09 05:17:11;;;;;;;;;;;16.10;99.90;;;;;;5116067;28;19908;-75
2022/05/09 05:19:40;;;;;;;;;;;16.10;99.90;;;;;;5115457;28;19977;-75
2022/05/09 05:22:08;;;;;;;;;;;16.10;99.90;;;;;;5115927;28;19908;-76
2022/05/09 05:24:35;;;;;;;;;;;16.10;99.90;;;;;;5115837;28;20354;-75
2022/05/09 05:27:02;;;;;;;;;;;16.20;99.90;;;;;;5115553;28;20369;-75
2022/05/09 05:29:29;;;;;;;;;;;16.20;99.90;;;;;;5115722;28;19908;-75
2022/05/09 05:31:56;;;;;;;;;;;16.10;99.90;;;;;;5115639;28;19969;-75
2022/05/09 05:34:22;;;;;;;;;;;16.20;99.90;;;;;;5115702;28;19915;-75
2022/05/09 05:36:50;;;;;;;;;;;16.20;99.90;;;;;;5115560;28;19907;-75
2022/05/09 05:39:17;;;;;;;;;;;16.20;99.90;;;;;;5115708;28;20273;-75
2022/05/09 05:41:45;;;;;;;;;;;16.30;99.90;;;;;;5114405;28;20403;-76
2022/05/09 05:44:12;;;;;;;;;;;16.20;99.90;;;;;;5115546;28;19957;-76
2022/05/09 05:46:39;;;;;;;;;;;16.30;99.90;;;;;;5115455;28;19907;-75
2022/05/09 05:49:06;;;;;;;;;;;16.30;99.90;;;;;;5115210;28;19908;-75
2022/05/09 05:51:33;;;;;;;;;;;16.30;99.90;;;;;;5115013;28;19920;-75
2022/05/09 05:53:59;;;;;;;;;;;16.30;99.90;;;;;;5115369;28;19953;-75
2022/05/09 05:56:26;;;;;;;;;;;16.30;99.90;;;;;;5115100;28;19932;-75
2022/05/09 05:58:53;;;;;;;;;;;16.30;99.90;;;;;;5115220;28;20006;-75
2022/05/09 06:01:19;;;;;;;;;;;16.40;99.90;;;;;;5115200;28;19914;-74
2022/05/09 06:03:46;;;;;;;;;;;16.40;99.90;;;;;;5114873;28;19912;-74
2022/05/09 06:06:14;;;;;;;;;;;16.30;99.90;;;;;;5114993;28;19950;-74
2022/05/09 06:08:43;;;;;;;;;;;16.30;99.90;;;;;;5115075;28;19946;-74
2022/05/09 06:11:10;;;;;;;;;;;16.30;99.90;;;;;;5114994;28;19908;-74
2022/05/09 06:13:37;;;;;;;;;;;16.20;99.90;;;;;;5114622;28;20331;-74
2022/05/09 06:16:04;;;;;;;;;;;16.20;99.90;;;;;;5114842;28;19954;-75
2022/05/09 06:18:33;;;;;;;;;;;16.20;99.90;;;;;;5114745;28;19912;-75
2022/05/09 06:21:00;;;;;;;;;;;16.10;99.90;;;;;;5113432;28;19912;-75
2022/05/09 06:23:27;;;;;;;;;;;16.10;99.90;;;;;;5113541;28;19914;-75
2022/05/09 06:25:57;;;;;;;;;;;16.10;99.90;;;;;;5114368;28;19911;-75
2022/05/09 06:28:24;;;;;;;;;;;16.20;99.90;;;;;;5114593;28;19915;-75
2022/05/09 06:30:51;;;;;;;;;;;16.10;99.90;;;;;;5114489;28;19911;-76
2022/05/09 06:33:22;;;;;;;;;;;16.10;99.90;;;;;;5114509;28;20017;-76
2022/05/09 06:35:50;;;;;;;;;;;16.20;99.90;;;;;;5114301;28;20479;-77
2022/05/09 06:38:18;;;;;;;;;;;16.20;99.90;;;;;;5114181;28;19911;-76
2022/05/09 06:40:45;;;;;;;;;;;16.20;99.90;;;;;;5114253;28;20362;-76
2022/05/09 06:43:11;;;;;;;;;;;16.20;99.90;;;;;;5114371;28;19912;-76
2022/05/09 06:45:38;;;;;;;;;;;16.20;99.90;;;;;;5114096;28;19908;-76
2022/05/09 06:48:05;;;;;;;;;;;16.20;99.90;;;;;;5114120;28;19908;-76
2022/05/09 06:50:33;;;;;;;;;;;16.20;99.90;;;;;;5114004;28;19924;-75
2022/05/09 06:53:00;;;;;;;;;;;16.20;99.90;;;;;;5111100;28;19915;-75
2022/05/09 06:55:27;;;;;;;;;;;16.20;99.90;;;;;;5111936;28;20025;-76
2022/05/09 06:57:53;;;;;;;;;;;16.20;99.90;;;;;;5111779;28;19927;-76
2022/05/09 07:00:22;;;;;;;;;;;16.20;99.90;;;;;;5112013;28;19911;-76
2022/05/09 07:02:49;;;;;;;;;;;16.20;99.90;;;;;;5111905;28;19915;-76
2022/05/09 07:05:17;;;;;;;;;;;16.20;99.90;;;;;;5111589;28;19914;-75
2022/05/09 07:07:44;;;;;;;;;;;16.20;99.90;;;;;;5111457;28;20346;-76
2022/05/09 07:10:12;;;;;;;;;;;16.10;99.90;;;;;;5111773;28;19914;-75
2022/05/09 07:12:46;;;;;;;;;;;16.10;99.90;;;;;;5110388;28;19912;-75
2022/05/09 07:15:13;;;;;;;;;;;16.00;99.90;;;;;;5110442;28;19908;-75
2022/05/09 07:17:40;;;;;;;;;;;16.10;99.90;;;;;;5111247;28;19939;-75
2022/05/09 07:20:07;;;;;;;;;;;16.00;99.90;;;;;;5111725;28;19916;-75
2022/05/09 07:22:34;;;;;;;;;;;16.10;99.90;;;;;;5111763;28;19966;-75
2022/05/09 07:25:02;;;;;;;;;;;16.10;99.90;;;;;;5111618;28;19908;-74
2022/05/09 07:27:30;;;;;;;;;;;16.10;99.90;;;;;;5111584;28;19953;-74
2022/05/09 07:29:57;;;;;;;;;;;16.10;99.90;;;;;;5111620;28;19908;-74
2022/05/09 07:32:24;;;;;;;;;;;16.00;99.90;;;;;;5111425;28;19961;-74
2022/05/09 07:34:51;;;;;;;;;;;16.00;99.90;;;;;;5111512;28;19915;-74
2022/05/09 07:37:18;;;;;;;;;;;16.00;99.90;;;;;;5111572;28;19912;-74
2022/05/09 07:39:45;;;;;;;;;;;15.90;99.90;;;;;;5111059;28;19926;-74
2022/05/09 07:42:12;;;;;;;;;;;15.80;99.90;;;;;;5111435;28;19998;-75
2022/05/09 07:44:39;;;;;;;;;;;15.80;99.90;;;;;;5111069;28;19915;-74
2022/05/09 07:47:06;;;;;;;;;;;15.80;99.90;;;;;;5111373;28;19953;-74
2022/05/09 07:49:32;;;;;;;;;;;15.70;99.90;;;;;;5111063;28;20370;-74
2022/05/09 07:51:59;;;;;;;;;;;15.70;99.90;;;;;;5111351;28;19919;-74
2022/05/09 07:54:26;;;;;;;;;;;15.70;99.90;;;;;;5111136;28;20362;-74
2022/05/09 07:56:52;;;;;;;;;;;15.70;99.90;;;;;;5110953;28;20003;-74
2022/05/09 07:59:20;;;;;;;;;;;15.70;99.90;;;;;;5111176;28;19919;-74
2022/05/09 08:01:47;;;;;;;;;;;15.60;99.90;;;;;;5111073;28;19978;-74
2022/05/09 08:04:13;;;;;;;;;;;15.60;99.90;;;;;;5111180;28;19955;-74
2022/05/09 08:06:40;;;;;;;;;;;15.50;99.90;;;;;;5114439;28;19958;-74
2022/05/09 08:09:07;;;;;;;;;;;15.40;99.90;;;;;;5115327;28;19912;-74
2022/05/09 08:11:34;;;;;;;;;;;15.40;99.90;;;;;;5114565;28;19918;-74
2022/05/09 08:14:00;;;;;;;;;;;15.30;99.90;;;;;;5115087;28;20369;-75
2022/05/09 08:16:30;;;;;;;;;;;15.30;99.90;;;;;;5114997;28;20574;-74
2022/05/09 08:18:58;;;;;;;;;;;15.40;99.90;;;;;;5114912;28;19916;-74
2022/05/09 08:21:25;;;;;;;;;;;15.40;99.90;;;;;;5115090;28;19912;-74
2022/05/09 08:23:52;;;;;;;;;;;15.40;99.90;;;;;;5114407;28;20520;-74
2022/05/09 08:26:22;;;;;;;;;;;15.40;99.90;;;;;;5114702;28;19911;-75
2022/05/09 08:28:53;;;;;;;;;;;15.40;99.90;;;;;;5114888;28;19919;-74
2022/05/09 08:31:21;;;;;;;;;;;15.50;99.90;;;;;;5114788;28;19957;-75
2022/05/09 08:33:49;;;;;;;;;;;15.50;99.90;;;;;;5114566;28;19915;-75
2022/05/09 08:39:01;;;;;;;;;;;15.40;99.90;;;;;;5114515;28;20022;-76
2022/05/09 08:41:30;;;;;;;;;;;15.50;99.90;;;;;;5114307;28;20282;-75
2022/05/09 08:44:00;;;;;;;;;;;15.40;99.90;;;;;;5114479;28;19911;-75
2022/05/09 08:46:27;;;;;;;;;;;15.40;99.90;;;;;;5114417;28;19907;-74
2022/05/09 08:49:01;;;;;;;;;;;15.40;99.90;;;;;;5114129;28;19995;-74
2022/05/09 08:51:47;;;;;;;;;;;15.50;99.90;;;;;;5114272;28;20405;-74
2022/05/09 08:54:22;;;;;;;;;;;15.40;99.90;;;;;;5114214;28;19919;-74
2022/05/09 08:56:51;;;;;;;;;;;15.40;99.90;;;;;;5114408;28;20358;-74
2022/05/09 08:59:24;;;;;;;;;;;15.40;99.90;;;;;;5114256;28;19916;-75
2022/05/09 09:02:18;;;;;;;;;;;15.30;99.90;;;;;;5113620;28;19908;-74
2022/05/09 09:04:49;;;;;;;;;;;15.40;99.90;;;;;;5090865;28;20014;-74
2022/05/09 09:07:22;;;;;;;;;;;15.40;99.90;;;;;;5116348;28;19907;-75
2022/05/09 09:10:10;;;;;;;;;;;15.40;99.90;;;;;;5115931;28;19939;-74
2022/05/09 09:12:39;;;;;;;;;;;15.40;99.90;;;;;;5116173;28;19908;-75
2022/05/09 09:15:09;;;;;;;;;;;15.40;99.90;;;;;;5116040;28;19937;-74
2022/05/09 09:17:36;;;;;;;;;;;15.40;99.90;;;;;;5114598;28;19907;-75
2022/05/09 09:20:15;;;;;;;;;;;15.30;99.90;;;;;;5115940;28;19961;-74
2022/05/09 09:22:47;;;;;;;;;;;15.30;99.90;;;;;;5116034;28;19919;-74
2022/05/09 09:25:26;;;;;;;;;;;15.30;99.90;;;;;;5114522;28;19908;-75
2022/05/09 09:28:00;;;;;;;;;;;15.30;99.90;;;;;;5115645;28;19908;-74
2022/05/09 09:30:29;;;;;;;;;;;15.30;99.90;;;;;;5115988;28;19954;-75
2022/05/09 09:32:57;;;;;;;;;;;15.30;99.90;;;;;;5115753;28;19916;-75
2022/05/09 09:35:28;;;;;;;;;;;15.30;99.90;;;;;;5115634;28;20376;-74
2022/05/09 09:38:15;;;;;;;;;;;15.30;99.90;;;;;;5115153;28;20278;-75
2022/05/09 09:40:41;;;;;;;;;;;15.30;99.90;;;;;;5115615;28;19922;-75
2022/05/09 09:43:08;;;;;;;;;;;15.30;99.90;;;;;;5114274;28;20290;-75
2022/05/09 09:45:44;;;;;;;;;;;15.30;99.90;;;;;;5115423;28;20277;-75
2022/05/09 09:48:11;;;;;;;;;;;15.20;99.90;;;;;;5115512;28;19908;-75
2022/05/09 09:50:45;;;;;;;;;;;15.20;99.90;;;;;;5115355;28;19920;-75
2022/05/09 09:53:13;;;;;;;;;;;15.20;99.90;;;;;;5115460;28;20241;-75
2022/05/09 09:55:39;;;;;;;;;;;15.20;99.90;;;;;;5114913;28;19912;-74
2022/05/09 09:58:24;;;;;;;;;;;15.10;99.90;;;;;;5115189;28;20002;-74
2022/05/09 10:01:06;;;;;;;;;;;15.10;99.90;;;;;;5115300;28;20374;-75
2022/05/09 10:03:33;;;;;;;;;;;15.10;99.90;;;;;;5114887;28;20266;-75
2022/05/09 10:06:01;;;;;;;;;;;15.10;99.90;;;;;;5115090;28;20445;-76
2022/05/09 10:08:36;;;;;;;;;;;15.10;99.90;;;;;;5115022;28;19907;-75
2022/05/09 10:11:22;;;;;;;;;;;15.10;99.90;;;;;;5115041;28;19908;-75
2022/05/09 10:13:55;;;;;;;;;;;15.10;99.90;;;;;;5114547;28;20326;-76
2022/05/09 10:16:21;;;;;;;;;;;15.10;99.90;;;;;;5114957;28;19923;-76
2022/05/09 10:18:50;;;;;;;;;;;15.10;99.90;;;;;;5114762;28;20495;-75
2022/05/09 10:26:57;;;;;;;;;;;15.00;99.90;;;;;;5115144;28;20006;-76
2022/05/09 10:29:25;;;;;;;;;;;15.00;99.90;;;;;;5085643;28;20274;-76
2022/05/09 10:32:03;;;;;;;;;;;15.00;99.90;;;;;;5073267;28;19912;-75
2022/05/09 10:34:38;;;;;;;;;;;15.00;99.90;;;;;;5074072;28;19915;-75
2022/05/09 10:37:16;;;;;;;;;;;15.10;99.90;;;;;;5073938;28;20347;-75
2022/05/09 10:40:02;;;;;;;;;;;15.00;99.90;;;;;;5073517;28;20004;-75
2022/05/09 10:42:34;;;;;;;;;;;15.00;99.90;;;;;;5069659;28;19939;-75
2022/05/09 10:45:11;;;;;;;;;;;15.00;99.90;;;;;;5073776;28;19912;-76
2022/05/09 10:47:52;;;;;;;;;;;15.10;99.90;;;;;;5073107;28;20355;-77
2022/05/09 10:50:21;;;;;;;;;;;15.00;99.90;;;;;;5106117;28;20282;-75
2022/05/09 10:52:48;;;;;;;;;;;15.00;99.90;;;;;;5073474;28;19991;-75
2022/05/09 10:55:14;;;;;;;;;;;15.00;99.90;;;;;;5073597;28;19948;-75
2022/05/09 10:57:45;;;;;;;;;;;15.00;99.90;;;;;;5073507;28;19999;-76
2022/05/09 11:00:18;;;;;;;;;;;15.00;99.90;;;;;;5073427;28;19920;-76
2022/05/09 11:03:04;;;;;;;;;;;15.00;99.90;;;;;;5073098;28;19909;-77
2022/05/09 11:05:40;;;;;;;;;;;15.00;99.90;;;;;;5069210;28;19913;-75
2022/05/09 11:08:15;;;;;;;;;;;15.00;99.90;;;;;;5073600;28;19954;-75
2022/05/09 11:10:51;;;;;;;;;;;15.00;99.90;;;;;;5073532;28;19919;-75
2022/05/09 11:13:18;;;;;;;;;;;15.00;99.90;;;;;;5073428;28;19908;-75
2022/05/09 11:15:45;;;;;;;;;;;15.00;99.90;;;;;;5073142;28;19916;-76
2022/05/09 11:18:18;;;;;;;;;;;15.00;99.90;;;;;;5072656;28;19908;-75
2022/05/09 11:20:53;;;;;;;;;;;15.00;99.90;;;;;;5073525;28;20358;-76
2022/05/09 11:23:27;;;;;;;;;;;15.00;99.90;;;;;;5105700;28;20465;-75
2022/05/09 11:26:07;;;;;;;;;;;15.00;99.90;;;;;;5073064;28;19913;-75
2022/05/09 11:28:52;;;;;;;;;;;15.00;99.90;;;;;;5073302;28;19909;-75
2022/05/09 11:31:28;;;;;;;;;;;15.00;99.90;;;;;;5072820;28;19908;-75
2022/05/09 11:33:58;;;;;;;;;;;15.00;99.90;;;;;;5073041;28;20017;-75
2022/05/09 11:36:34;;;;;;;;;;;15.00;99.90;;;;;;5073196;28;19915;-75
2022/05/09 11:39:19;;;;;;;;;;;15.00;99.90;;;;;;5072948;28;19916;-75
2022/05/09 11:45:04;;;;;;;;;;;15.10;99.90;;;;;;5060155;28;19972;-75
2022/05/09 11:47:38;;;;;;;;;;;15.10;99.90;;;;;;5076558;28;19916;-75
2022/05/09 11:50:27;;;;;;;;;;;15.10;99.90;;;;;;5077013;28;19920;-76
2022/05/09 11:52:55;;;;;;;;;;;15.10;99.90;;;;;;5077019;28;20286;-76
2022/05/09 11:55:23;;;;;;;;;;;15.00;99.90;;;;;;5076897;28;19948;-76
2022/05/09 11:57:58;;;;;;;;;;;15.00;99.90;;;;;;5076763;28;20531;-76
2022/05/09 12:00:31;;;;;;;;;;;15.10;99.90;;;;;;5077203;28;19970;-73
2022/05/09 12:02:58;;;;;;;;;;;15.10;99.90;;;;;;5076018;28;19908;-73
2022/05/09 12:05:31;;;;;;;;;;;15.10;99.90;;;;;;5076874;28;19975;-73
2022/05/09 12:08:13;;;;;;;;;;;15.10;99.90;;;;;;5076674;28;20279;-73
2022/05/09 12:10:41;;;;;;;;;;;15.10;99.90;;;;;;5076885;28;19913;-74
2022/05/09 12:13:33;;;;;;;;;;;15.10;99.90;;;;;;5076713;28;19912;-74
2022/05/09 12:16:00;;;;;;;;;;;15.00;99.90;;;;;;5068210;28;20010;-74
2022/05/09 12:18:30;;;;;;;;;;;15.00;99.90;;;;;;5076530;28;20276;-74
2022/05/09 12:21:00;;;;;;;;;;;15.00;99.90;;;;;;5076646;28;19916;-73
2022/05/09 12:23:42;;;;;;;;;;;14.90;99.90;;;;;;5076528;28;20502;-74
2022/05/09 12:26:09;;;;;;;;;;;15.00;99.90;;;;;;5076509;28;20377;-74
2022/05/09 12:28:39;;;;;;;;;;;15.00;99.90;;;;;;5076366;28;20000;-74
2022/05/09 12:31:09;;;;;;;;;;;15.00;99.90;;;;;;5076278;28;20279;-73
2022/05/09 12:33:36;;;;;;;;;;;15.00;99.90;;;;;;5076099;28;19958;-74
2022/05/09 12:36:06;;;;;;;;;;;15.00;99.90;;;;;;5076263;28;19912;-74
2022/05/09 12:38:35;;;;;;;;;;;15.00;99.90;;;;;;5076093;28;19913;-75
2022/05/09 12:41:10;;;;;;;;;;;14.90;99.90;;;;;;5076162;28;19947;-74
2022/05/09 12:43:38;;;;;;;;;;;15.00;99.90;;;;;;5075927;28;19916;-74
2022/05/09 12:46:06;;;;;;;;;;;14.90;99.90;;;;;;5076163;28;19916;-74
2022/05/09 12:48:36;;;;;;;;;;;14.90;99.90;;;;;;5076085;28;19912;-74
2022/05/09 12:51:07;;;;;;;;;;;14.90;99.90;;;;;;5075455;28;19920;-74
2022/05/09 12:53:35;;;;;;;;;;;14.90;99.90;;;;;;5075611;28;20393;-74
2022/05/09 12:56:08;;;;;;;;;;;14.90;99.90;;;;;;5075754;28;19909;-74
2022/05/09 12:58:36;;;;;;;;;;;14.90;99.90;;;;;;5074526;28;19919;-74
2022/05/09 13:01:11;;;;;;;;;;;14.90;99.90;;;;;;5076010;28;20015;-74
2022/05/09 13:03:56;;;;;;;;;;;14.90;99.90;;;;;;5075469;28;19909;-74
2022/05/09 13:06:24;;;;;;;;;;;14.90;99.90;;;;;;5075735;28;19909;-74
2022/05/09 13:08:52;;;;;;;;;;;14.90;99.90;;;;;;5075509;28;19909;-74
2022/05/09 13:11:20;;;;;;;;;;;14.90;99.90;;;;;;5075593;28;19915;-75
2022/05/09 13:14:02;;;;;;;;;;;14.90;99.90;;;;;;5075394;28;19908;-74
2022/05/09 13:16:32;;;;;;;;;;;14.90;99.90;;;;;;5075349;28;19918;-74
2022/05/09 13:18:59;;;;;;;;;;;14.90;99.90;;;;;;5075430;28;19920;-74
2022/05/09 13:21:28;;;;;;;;;;;14.90;99.90;;;;;;5075329;28;19908;-74
2022/05/09 13:23:56;;;;;;;;;;;14.90;99.90;;;;;;5075367;28;19909;-74
2022/05/09 13:26:25;;;;;;;;;;;14.80;99.90;;;;;;5075375;28;19909;-74
2022/05/09 13:29:11;;;;;;;;;;;14.80;99.90;;;;;;5075233;28;19916;-74
2022/05/09 13:31:38;;;;;;;;;;;14.80;99.90;;;;;;5075016;28;19909;-74
2022/05/09 13:34:05;;;;;;;;;;;14.80;99.90;;;;;;5075256;28;19913;-74
2022/05/09 13:36:36;;;;;;;;;;;14.80;99.90;;;;;;5075256;28;19916;-74
2022/05/09 13:39:04;;;;;;;;;;;14.80;99.90;;;;;;5074950;28;20430;-74
2022/05/09 13:41:31;;;;;;;;;;;14.80;99.90;;;;;;5074834;28;20408;-74
2022/05/09 13:44:01;;;;;;;;;;;14.80;99.90;;;;;;5075042;28;19932;-74
2022/05/09 13:46:32;;;;;;;;;;;14.80;99.90;;;;;;5075049;28;20251;-74
2022/05/09 13:49:05;;;;;;;;;;;14.80;99.90;;;;;;5074856;28;19940;-75
2022/05/09 13:51:33;;;;;;;;;;;14.70;99.90;;;;;;5054630;28;19924;-74
2022/05/09 13:54:10;;;;;;;;;;;14.70;99.90;;;;;;5054725;28;19999;-75
2022/05/09 13:56:38;;;;;;;;;;;14.70;99.90;;;;;;5054801;28;20003;-74
2022/05/09 13:59:06;;;;;;;;;;;14.80;99.90;;;;;;5054699;28;19917;-74
2022/05/09 14:01:56;;;;;;;;;;;14.80;99.90;;;;;;5054418;28;19909;-75
2022/05/09 14:04:23;;;;;;;;;;;14.80;99.90;;;;;;5053960;28;20322;-74
2022/05/09 14:06:50;;;;;;;;;;;14.70;99.90;;;;;;5054558;28;19908;-75
2022/05/09 14:09:22;;;;;;;;;;;14.80;99.90;;;;;;5054238;28;20398;-74
2022/05/09 14:11:54;;;;;;;;;;;14.70;99.90;;;;;;5054419;28;19909;-74
2022/05/09 14:14:51;;;;;;;;;;;14.80;99.90;;;;;;5054462;28;20375;-75
2022/05/09 14:17:23;;;;;;;;;;;14.80;99.90;;;;;;5045677;28;20383;-75
2022/05/09 14:19:51;;;;;;;;;;;14.70;99.90;;;;;;5054289;28;19924;-74
2022/05/09 14:22:21;;;;;;;;;;;14.70;99.90;;;;;;5054249;28;19963;-75
2022/05/09 14:30:31;;;;;;;;;;;14.60;99.90;;;;;;5054220;28;19936;-74
2022/05/09 14:32:58;;;;;;;;;;;14.60;99.90;;;;;;5054198;28;19908;-75
2022/05/09 14:35:42;;;;;;;;;;;14.60;99.90;;;;;;5054027;28;19916;-75
2022/05/09 14:38:27;;;;;;;;;;;14.50;99.90;;;;;;5053790;28;19999;-74
2022/05/09 14:41:05;;;;;;;;;;;14.50;99.90;;;;;;5053902;28;19913;-75
2022/05/09 14:43:32;;;;;;;;;;;14.60;99.90;;;;;;5053793;28;19912;-74
2022/05/09 14:46:03;;;;;;;;;;;14.60;99.90;;;;;;5053661;28;19995;-74
2022/05/09 14:48:30;;;;;;;;;;;14.60;99.90;;;;;;5053621;28;20379;-74
2022/05/09 14:50:59;;;;;;;;;;;14.50;99.90;;;;;;5069198;28;19921;-74
2022/05/09 14:53:37;;;;;;;;;;;14.50;99.90;;;;;;5073523;28;19908;-74
2022/05/09 14:59:10;;;;;;;;;;;14.50;99.90;;;;;;5073838;28;19923;-74